Time;durP1;ratioP1;P1;durP2;ratioP2;P2;SDS_P1;SDS_P2;PMS_P1;PMS_P2;Temp;Humidity;BMP_temperature;BMP_pressure;BME280_temperature;BME280_humidity;BME280_pressure;Samples;Min_cycle;Max_cycle;Signal;HPM_P1;HPM_P2
2023/03/12 00:02:01;;;;;;;;;;;;;;;0.82;73.01;98433.81;5054470;28;19951;-80
2023/03/12 00:04:27;;;;;;;;;;;;;;;0.70;72.98;98435.38;5070503;28;20327;-78
2023/03/12 00:06:52;;;;;;;;;;;;;;;0.70;72.98;98428.31;5069899;28;19925;-80
2023/03/12 00:09:17;;;;;;;;;;;;;;;0.70;73.49;98436.19;5069057;28;19924;-80
2023/03/12 00:11:43;;;;;;;;;;;;;;;0.78;73.21;98435.22;5071549;28;19917;-79
2023/03/12 00:14:08;;;;;;;;;;;;;;;0.76;73.20;98445.91;5088750;28;19920;-80
2023/03/12 00:16:33;;;;;;;;;;;;;;;0.77;73.10;98454.59;5069360;28;19927;-78
2023/03/12 00:18:59;;;;;;;;;;;;;;;0.64;72.82;98446.66;5069987;28;20384;-80
2023/03/12 00:21:24;;;;;;;;;;;;;;;-0.28;73.31;98445.25;5071324;28;19959;-79
2023/03/12 00:23:50;;;;;;;;;;;;;;;-0.67;75.25;98450.97;5072111;28;19923;-79
2023/03/12 00:26:16;;;;;;;;;;;;;;;-0.46;76.26;98453.56;5069041;28;20461;-78
2023/03/12 00:28:41;;;;;;;;;;;;;;;-0.44;76.42;98453.41;5067613;28;20016;-79
2023/03/12 00:31:15;;;;;;;;;;;;;;;-0.27;76.38;98457.38;5071058;28;19960;-79
2023/03/12 00:33:40;;;;;;;;;;;;;;;-0.91;74.61;98453.94;5069138;28;20429;-80
2023/03/12 00:36:06;;;;;;;;;;;;;;;-1.05;75.72;98458.22;5072354;28;19920;-79
2023/03/12 00:38:31;;;;;;;;;;;;;;;-0.70;77.32;98459.22;5073851;28;19920;-78
2023/03/12 00:40:56;;;;;;;;;;;;;;;-1.10;76.16;98455.34;5073677;28;19924;-80
2023/03/12 00:43:22;;;;;;;;;;;;;;;-1.35;76.40;98461.06;5075535;28;19931;-78
2023/03/12 00:45:47;;;;;;;;;;;;;;;-0.69;78.46;98454.78;5071111;28;19920;-78
2023/03/12 00:48:12;;;;;;;;;;;;;;;-0.95;77.06;98450.91;5072474;28;19921;-79
2023/03/12 00:50:38;;;;;;;;;;;;;;;-0.20;76.04;98453.81;5056193;28;19928;-78
2023/03/12 00:53:03;;;;;;;;;;;;;;;-0.49;75.15;98453.16;5070437;28;19975;-78
2023/03/12 00:55:28;;;;;;;;;;;;;;;-1.77;75.71;98451.28;5069466;28;19923;-80
2023/03/12 00:57:54;;;;;;;;;;;;;;;-1.41;77.61;98456.56;5070425;28;19920;-79
2023/03/12 01:00:19;;;;;;;;;;;;;;;-1.68;77.92;98453.59;5070838;28;20394;-80
2023/03/12 01:02:44;;;;;;;;;;;;;;;-1.66;77.72;98451.63;5070418;28;19931;-80
2023/03/12 01:05:11;;;;;;;;;;;;;;;-0.65;77.90;98448.16;5066848;28;19920;-81
2023/03/12 01:07:36;;;;;;;;;;;;;;;-0.16;76.93;98451.63;5067208;28;19943;-81
2023/03/12 01:10:01;;;;;;;;;;;;;;;-0.18;74.93;98451.00;5064956;28;19916;-81
2023/03/12 01:12:26;;;;;;;;;;;;;;;0.11;74.96;98450.00;5070544;28;20369;-80
2023/03/12 01:14:52;;;;;;;;;;;;;;;0.23;74.22;98440.59;5052642;28;19924;-79
2023/03/12 01:17:17;;;;;;;;;;;;;;;0.28;74.40;98448.72;5051396;28;19932;-78
2023/03/12 01:19:42;;;;;;;;;;;;;;;-0.11;74.83;98441.38;5067871;28;20007;-78
2023/03/12 01:22:07;;;;;;;;;;;;;;;0.17;74.38;98433.50;5069421;28;19924;-81
2023/03/12 01:24:33;;;;;;;;;;;;;;;0.13;74.48;98446.19;5068965;28;19970;-80
2023/03/12 01:26:58;;;;;;;;;;;;;;;0.29;73.89;98439.81;5046464;28;20376;-80
2023/03/12 01:29:23;;;;;;;;;;;;;;;0.33;73.37;98443.69;5062805;28;20387;-79
2023/03/12 01:31:49;;;;;;;;;;;;;;;0.38;73.43;98425.53;5065565;28;20351;-77
2023/03/12 01:34:14;;;;;;;;;;;;;;;0.31;73.34;98435.19;5069595;28;19921;-79
2023/03/12 01:36:40;;;;;;;;;;;;;;;0.09;73.31;98429.19;5066940;28;19926;-81
2023/03/12 01:39:05;;;;;;;;;;;;;;;0.27;73.90;98432.16;5071179;28;20306;-81
2023/03/12 01:41:31;;;;;;;;;;;;;;;0.29;73.34;98429.31;5072051;28;19912;-80
2023/03/12 01:43:57;;;;;;;;;;;;;;;0.28;73.50;98431.16;5073912;28;19917;-80
2023/03/12 01:46:38;;;;;;;;;;;;;;;0.16;74.14;98434.47;5070551;28;19987;-80
2023/03/12 01:49:19;;;;;;;;;;;;;;;0.28;73.28;98430.34;5077090;28;19977;-81
2023/03/12 01:51:44;;;;;;;;;;;;;;;0.39;73.59;98435.88;5070858;28;19916;-81
2023/03/12 01:54:16;;;;;;;;;;;;;;;-0.07;74.18;98437.38;5070749;28;19973;-79
2023/03/12 01:56:41;;;;;;;;;;;;;;;-0.31;74.64;98430.75;5070667;28;19916;-80
2023/03/12 01:59:12;;;;;;;;;;;;;;;-0.07;75.02;98426.88;5074540;28;19920;-79
2023/03/12 02:01:40;;;;;;;;;;;;;;;-0.03;74.71;98423.69;5086886;28;20273;-80
2023/03/12 02:04:05;;;;;;;;;;;;;;;-0.17;73.73;98419.34;5055095;28;19921;-80
2023/03/12 02:07:00;;;;;;;;;;;;;;;-0.22;75.23;98426.97;5064171;28;19919;-79
2023/03/12 02:09:25;;;;;;;;;;;;;;;0.08;74.62;98416.28;5053946;28;19920;-80
2023/03/12 02:11:50;;;;;;;;;;;;;;;0.17;73.89;98420.38;5065970;28;20710;-79
2023/03/12 02:14:15;;;;;;;;;;;;;;;0.28;73.82;98414.59;5065649;28;19960;-80
2023/03/12 02:16:41;;;;;;;;;;;;;;;0.37;73.28;98416.06;5062393;28;19920;-79
2023/03/12 02:19:12;;;;;;;;;;;;;;;0.35;73.65;98415.44;5047836;28;20205;-79
2023/03/12 02:21:37;;;;;;;;;;;;;;;0.31;73.60;98409.75;5065351;28;20202;-80
2023/03/12 02:24:12;;;;;;;;;;;;;;;0.38;73.29;98412.41;5047338;28;19932;-80
2023/03/12 02:26:38;;;;;;;;;;;;;;;0.42;73.47;98411.00;5078923;28;19916;-81
2023/03/12 02:29:03;;;;;;;;;;;;;;;0.37;73.29;98410.81;5069167;28;20278;-80
2023/03/12 02:31:31;;;;;;;;;;;;;;;0.42;73.12;98411.84;5071116;28;19917;-81
2023/03/12 02:33:57;;;;;;;;;;;;;;;0.42;72.97;98411.00;5067381;28;20491;-80
2023/03/12 02:36:22;;;;;;;;;;;;;;;0.23;73.67;98416.97;5064722;28;19920;-80
2023/03/12 02:38:49;;;;;;;;;;;;;;;-0.03;74.24;98418.44;5073309;28;20351;-80
2023/03/12 02:41:31;;;;;;;;;;;;;;;-0.42;74.99;98417.34;5068206;28;19978;-81
2023/03/12 02:44:00;;;;;;;;;;;;;;;-1.13;76.31;98408.59;5071252;28;19963;-80
2023/03/12 02:46:25;;;;;;;;;;;;;;;-1.43;76.14;98401.00;5065330;28;19920;-79
2023/03/12 02:48:51;;;;;;;;;;;;;;;-1.49;78.16;98409.56;5066549;28;20031;-79
2023/03/12 02:51:16;;;;;;;;;;;;;;;-1.91;79.01;98403.19;5068055;28;20538;-78
2023/03/12 02:53:42;;;;;;;;;;;;;;;-1.91;79.25;98411.06;5069134;28;19921;-79
2023/03/12 02:56:07;;;;;;;;;;;;;;;-1.78;79.19;98408.63;5066767;28;20358;-80
2023/03/12 02:58:32;;;;;;;;;;;;;;;-2.03;80.17;98403.84;5048062;28;20318;-80
2023/03/12 03:00:59;;;;;;;;;;;;;;;-1.89;78.59;98416.91;5050256;28;19932;-80
2023/03/12 03:03:24;;;;;;;;;;;;;;;-1.58;78.88;98409.69;5068038;28;19916;-80
2023/03/12 03:05:50;;;;;;;;;;;;;;;-1.94;78.53;98408.78;5061397;28;19917;-80
2023/03/12 03:08:16;;;;;;;;;;;;;;;-1.11;78.80;98411.00;5068152;28;19956;-79
2023/03/12 03:10:41;;;;;;;;;;;;;;;-1.18;78.71;98405.69;5069923;28;19967;-80
2023/03/12 03:13:06;;;;;;;;;;;;;;;-1.61;77.93;98404.81;5050098;28;19950;-79
2023/03/12 03:15:32;;;;;;;;;;;;;;;-1.67;79.29;98402.94;5065012;28;20019;-80
2023/03/12 03:17:57;;;;;;;;;;;;;;;-2.01;79.49;98402.66;5065694;28;19932;-80
2023/03/12 03:20:24;;;;;;;;;;;;;;;-2.24;80.35;98404.53;5066113;28;20368;-80
2023/03/12 03:22:50;;;;;;;;;;;;;;;-1.93;81.29;98407.81;5067919;28;19920;-79
2023/03/12 03:25:16;;;;;;;;;;;;;;;-0.90;80.16;98411.06;5063244;28;19917;-80
2023/03/12 03:27:41;;;;;;;;;;;;;;;-0.66;78.66;98402.81;5064599;28;19982;-80
2023/03/12 03:30:07;;;;;;;;;;;;;;;-0.93;79.04;98404.38;5062342;28;19924;-80
2023/03/12 03:32:32;;;;;;;;;;;;;;;-1.00;78.05;98407.91;5065389;28;20355;-80
2023/03/12 03:34:57;;;;;;;;;;;;;;;-0.85;78.58;98411.28;5068780;28;19925;-80
2023/03/12 03:37:23;;;;;;;;;;;;;;;-0.21;77.64;98417.28;5071623;28;19925;-81
2023/03/12 03:39:48;;;;;;;;;;;;;;;0.12;75.65;98413.09;5066382;28;19991;-81
2023/03/12 03:42:13;;;;;;;;;;;;;;;0.28;75.30;98409.34;5069600;28;19924;-81
2023/03/12 03:44:38;;;;;;;;;;;;;;;0.30;75.21;98407.34;5070235;28;19942;-80
2023/03/12 03:47:04;;;;;;;;;;;;;;;0.00;74.46;98412.00;5071465;28;20338;-80
2023/03/12 03:49:29;;;;;;;;;;;;;;;0.25;75.50;98418.41;5064505;28;19929;-80
2023/03/12 03:51:54;;;;;;;;;;;;;;;0.33;74.97;98407.75;5074869;28;19924;-80
2023/03/12 03:54:19;;;;;;;;;;;;;;;0.47;74.73;98413.88;5070408;28;19928;-80
2023/03/12 03:56:46;;;;;;;;;;;;;;;0.34;74.67;98411.19;5054064;28;19927;-80
2023/03/12 03:59:11;;;;;;;;;;;;;;;0.46;74.88;98407.81;5072642;28;19923;-81
2023/03/12 04:01:36;;;;;;;;;;;;;;;0.40;74.62;98413.03;5069086;28;19924;-81
2023/03/12 04:04:02;;;;;;;;;;;;;;;0.43;74.63;98416.09;5050674;28;19978;-81
2023/03/12 04:06:28;;;;;;;;;;;;;;;0.20;74.75;98404.25;5067206;28;20350;-81
2023/03/12 04:08:54;;;;;;;;;;;;;;;0.26;75.19;98401.69;5050368;28;20395;-79
2023/03/12 04:11:20;;;;;;;;;;;;;;;0.27;75.09;98397.22;5065948;28;20334;-79
2023/03/12 04:13:45;;;;;;;;;;;;;;;-0.18;74.94;98404.63;5067783;28;19950;-80
2023/03/12 04:16:11;;;;;;;;;;;;;;;0.27;75.27;98391.97;5065149;28;20354;-79
2023/03/12 04:18:37;;;;;;;;;;;;;;;0.41;74.91;98388.41;5067791;28;20007;-81
2023/03/12 04:21:03;;;;;;;;;;;;;;;0.12;74.60;98391.28;5062951;28;20262;-79
2023/03/12 04:23:29;;;;;;;;;;;;;;;0.17;75.39;98399.38;5070364;28;19921;-81
2023/03/12 04:25:54;;;;;;;;;;;;;;;-0.43;76.13;98400.78;5051332;28;19969;-81
2023/03/12 04:28:19;;;;;;;;;;;;;;;0.09;76.35;98399.56;5069880;28;19943;-81
2023/03/12 04:30:53;;;;;;;;;;;;;;;-0.04;75.54;98401.06;5069043;28;19985;-80
2023/03/12 04:33:18;;;;;;;;;;;;;;;0.13;75.44;98387.66;5069736;28;19920;-81
2023/03/12 04:35:51;;;;;;;;;;;;;;;0.31;75.12;98393.19;5082916;28;20421;-81
2023/03/12 04:38:16;;;;;;;;;;;;;;;0.34;75.02;98393.63;5068305;28;19916;-80
2023/03/12 04:40:42;;;;;;;;;;;;;;;0.38;74.74;98399.28;5067901;28;19926;-81
2023/03/12 04:43:07;;;;;;;;;;;;;;;0.41;74.58;98396.28;5072474;28;19924;-79
2023/03/12 04:45:32;;;;;;;;;;;;;;;0.32;74.81;98394.81;5071780;28;19963;-81
2023/03/12 04:47:57;;;;;;;;;;;;;;;0.36;74.36;98390.81;5070652;28;19921;-80
2023/03/12 04:50:22;;;;;;;;;;;;;;;0.18;74.93;98386.06;5071877;28;20411;-79
2023/03/12 04:52:48;;;;;;;;;;;;;;;-0.15;74.28;98392.91;5073240;28;20384;-81
2023/03/12 04:55:13;;;;;;;;;;;;;;;0.25;75.39;98380.84;5049445;28;20026;-80
2023/03/12 04:57:38;;;;;;;;;;;;;;;0.28;74.67;98383.91;5068661;28;20007;-81
2023/03/12 05:00:08;;;;;;;;;;;;;;;0.34;74.42;98380.50;5048668;28;19928;-79
2023/03/12 05:02:35;;;;;;;;;;;;;;;0.33;74.24;98375.47;5080237;28;19921;-79
2023/03/12 05:05:00;;;;;;;;;;;;;;;0.36;73.87;98385.56;5069761;28;20366;-80
2023/03/12 05:07:25;;;;;;;;;;;;;;;0.30;74.36;98381.09;5069717;28;20204;-80
2023/03/12 05:09:51;;;;;;;;;;;;;;;0.32;74.39;98381.69;5048742;28;19974;-80
2023/03/12 05:12:16;;;;;;;;;;;;;;;0.21;74.15;98377.81;5064788;28;19924;-80
2023/03/12 05:14:41;;;;;;;;;;;;;;;0.22;74.01;98389.91;5069061;28;19924;-81
2023/03/12 05:17:07;;;;;;;;;;;;;;;0.29;73.82;98376.84;5067389;28;19924;-80
2023/03/12 05:19:32;;;;;;;;;;;;;;;0.21;74.16;98369.94;5064403;28;19928;-79
2023/03/12 05:21:57;;;;;;;;;;;;;;;0.15;74.63;98372.53;5073129;28;19928;-79
2023/03/12 05:24:23;;;;;;;;;;;;;;;0.21;74.32;98367.31;5067911;28;19966;-79
2023/03/12 05:26:48;;;;;;;;;;;;;;;0.19;74.09;98369.34;5067570;28;20005;-79
2023/03/12 05:29:13;;;;;;;;;;;;;;;0.20;74.39;98364.91;5068171;28;19981;-81
2023/03/12 05:31:39;;;;;;;;;;;;;;;0.24;73.90;98366.13;5070579;28;19956;-80
2023/03/12 05:34:05;;;;;;;;;;;;;;;0.17;73.89;98373.97;5052227;28;19928;-80
2023/03/12 05:36:30;;;;;;;;;;;;;;;0.15;74.13;98372.53;5064947;28;19920;-79
2023/03/12 05:38:55;;;;;;;;;;;;;;;0.17;74.45;98368.72;5050097;28;19927;-79
2023/03/12 05:41:25;;;;;;;;;;;;;;;0.18;74.27;98377.38;5068772;28;19928;-79
2023/03/12 05:43:55;;;;;;;;;;;;;;;0.22;73.89;98378.63;5067265;28;19916;-81
2023/03/12 05:46:20;;;;;;;;;;;;;;;-0.07;74.21;98371.81;5069693;28;19963;-80
2023/03/12 05:48:45;;;;;;;;;;;;;;;0.24;74.32;98363.50;5068967;28;19982;-81
2023/03/12 05:51:10;;;;;;;;;;;;;;;0.11;74.20;98371.31;5069901;28;19925;-80
2023/03/12 05:53:36;;;;;;;;;;;;;;;0.28;74.19;98359.47;5064315;28;19924;-79
2023/03/12 05:56:06;;;;;;;;;;;;;;;-0.03;75.78;98355.50;5066965;28;20348;-80
2023/03/12 05:58:32;;;;;;;;;;;;;;;0.24;74.76;98358.25;5069541;28;19969;-80
2023/03/12 06:00:57;;;;;;;;;;;;;;;0.12;74.46;98357.16;5068629;28;19995;-80
2023/03/12 06:03:22;;;;;;;;;;;;;;;0.19;75.15;98358.03;5064902;28;19928;-80
2023/03/12 06:05:49;;;;;;;;;;;;;;;0.29;74.71;98346.16;5065143;28;19966;-80
2023/03/12 06:08:14;;;;;;;;;;;;;;;0.36;74.74;98344.38;5074042;28;20339;-81
2023/03/12 06:10:39;;;;;;;;;;;;;;;0.21;74.84;98353.38;5068698;28;19923;-80
2023/03/12 06:13:05;;;;;;;;;;;;;;;0.09;74.84;98352.34;5048095;28;19944;-78
2023/03/12 06:15:30;;;;;;;;;;;;;;;0.13;74.94;98353.56;5044835;28;19924;-80
2023/03/12 06:17:55;;;;;;;;;;;;;;;0.19;75.30;98350.97;5065544;28;19922;-80
2023/03/12 06:20:21;;;;;;;;;;;;;;;0.12;75.02;98352.75;5066758;28;19917;-81
2023/03/12 06:22:46;;;;;;;;;;;;;;;0.21;75.56;98354.19;5066195;28;19933;-79
2023/03/12 06:25:11;;;;;;;;;;;;;;;0.21;75.20;98359.44;5062827;28;19928;-79
2023/03/12 06:27:37;;;;;;;;;;;;;;;0.25;75.25;98352.00;5068237;28;20030;-79
2023/03/12 06:30:03;;;;;;;;;;;;;;;0.34;75.12;98356.06;5062032;28;19917;-80
2023/03/12 06:32:28;;;;;;;;;;;;;;;0.34;74.75;98346.38;5066814;28;19933;-81
2023/03/12 06:34:54;;;;;;;;;;;;;;;0.25;75.67;98352.81;5062223;28;19946;-80
2023/03/12 06:37:19;;;;;;;;;;;;;;;0.27;75.32;98355.22;5064407;28;19946;-80
2023/03/12 06:39:44;;;;;;;;;;;;;;;0.29;75.44;98342.72;5065084;28;19974;-79
2023/03/12 06:42:11;;;;;;;;;;;;;;;0.24;75.49;98342.50;5072037;28;19920;-81
2023/03/12 06:44:37;;;;;;;;;;;;;;;0.30;75.82;98344.34;5051289;28;19921;-79
2023/03/12 06:47:02;;;;;;;;;;;;;;;0.41;75.75;98346.41;5051675;28;19943;-80
2023/03/12 06:49:31;;;;;;;;;;;;;;;0.26;75.60;98338.69;5067871;28;20003;-80
2023/03/12 06:51:56;;;;;;;;;;;;;;;0.44;75.37;98331.06;5070192;28;19916;-79
2023/03/12 06:54:21;;;;;;;;;;;;;;;0.17;76.32;98336.41;5066009;28;20296;-79
2023/03/12 06:56:46;;;;;;;;;;;;;;;0.34;76.44;98329.81;5067226;28;19939;-79
2023/03/12 06:59:12;;;;;;;;;;;;;;;0.19;76.27;98314.22;5068799;28;19931;-79
2023/03/12 07:01:37;;;;;;;;;;;;;;;0.00;77.10;98315.75;5068159;28;19929;-79
2023/03/12 07:04:02;;;;;;;;;;;;;;;0.19;77.21;98310.78;5068058;28;20273;-78
2023/03/12 07:06:28;;;;;;;;;;;;;;;0.27;76.66;98316.69;5062903;28;20304;-78
2023/03/12 07:08:53;;;;;;;;;;;;;;;0.31;76.60;98303.97;5051851;28;19921;-80
2023/03/12 07:11:18;;;;;;;;;;;;;;;0.18;77.08;98311.78;5065571;28;19920;-78
2023/03/12 07:13:44;;;;;;;;;;;;;;;0.18;77.38;98311.78;5059187;28;20232;-79
2023/03/12 07:16:10;;;;;;;;;;;;;;;0.05;78.81;98309.09;5065102;28;19924;-79
2023/03/12 07:18:35;;;;;;;;;;;;;;;0.43;77.59;98308.47;5067767;28;19922;-79
2023/03/12 07:21:00;;;;;;;;;;;;;;;0.56;76.94;98308.50;5044128;28;19956;-80
2023/03/12 07:23:26;;;;;;;;;;;;;;;0.57;76.61;98314.53;5067963;28;19964;-80
2023/03/12 07:25:51;;;;;;;;;;;;;;;0.56;76.57;98305.06;5085443;28;19920;-79
2023/03/12 07:28:17;;;;;;;;;;;;;;;0.70;77.06;98298.81;5055964;28;19920;-78
2023/03/12 07:30:48;;;;;;;;;;;;;;;0.53;76.72;98294.94;5066503;28;20020;-78
2023/03/12 07:33:14;;;;;;;;;;;;;;;0.63;77.01;98287.53;5049570;28;19924;-79
2023/03/12 07:35:39;;;;;;;;;;;;;;;0.76;77.79;98298.03;5065184;28;19927;-79
2023/03/12 07:38:05;;;;;;;;;;;;;;;0.44;77.21;98302.19;5058166;28;19982;-78
2023/03/12 07:40:30;;;;;;;;;;;;;;;0.55;77.08;98285.88;5068962;28;19990;-78
2023/03/12 07:42:56;;;;;;;;;;;;;;;1.00;76.75;98294.84;5068871;28;20020;-79
2023/03/12 07:45:22;;;;;;;;;;;;;;;0.63;76.61;98287.53;5067744;28;19923;-80
2023/03/12 07:47:47;;;;;;;;;;;;;;;0.77;76.97;98294.41;5065894;28;20046;-78
2023/03/12 07:50:17;;;;;;;;;;;;;;;0.86;77.46;98295.84;5069852;28;19951;-79
2023/03/12 07:52:42;;;;;;;;;;;;;;;0.54;77.04;98283.47;5063336;28;20889;-79
2023/03/12 07:55:08;;;;;;;;;;;;;;;0.67;76.21;98286.09;5047470;28;19932;-79
2023/03/12 07:57:33;;;;;;;;;;;;;;;1.05;76.98;98286.38;5068048;28;19935;-79
2023/03/12 08:00:05;;;;;;;;;;;;;;;0.86;76.68;98295.00;5065771;28;20296;-81
2023/03/12 08:02:39;;;;;;;;;;;;;;;0.78;76.72;98288.16;5070748;28;20409;-83
2023/03/12 08:05:05;;;;;;;;;;;;;;;1.02;77.05;98287.56;5070786;28;20001;-83
2023/03/12 08:07:34;;;;;;;;;;;;;;;0.99;76.35;98287.16;5065226;28;20568;-83
2023/03/12 08:09:59;;;;;;;;;;;;;;;1.09;76.47;98284.94;5065724;28;19923;-82
2023/03/12 08:12:24;;;;;;;;;;;;;;;0.84;76.00;98282.09;5062849;28;20324;-83
2023/03/12 08:14:50;;;;;;;;;;;;;;;1.03;75.88;98280.47;5062964;28;20425;-82
2023/03/12 08:17:15;;;;;;;;;;;;;;;1.27;76.04;98285.13;5062518;28;19920;-82
2023/03/12 08:19:41;;;;;;;;;;;;;;;1.39;75.31;98279.06;5067238;28;19924;-82
2023/03/12 08:22:06;;;;;;;;;;;;;;;1.52;76.29;98278.25;5067100;28;19928;-82
2023/03/12 08:24:32;;;;;;;;;;;;;;;1.18;74.55;98281.91;5050168;28;19921;-82
2023/03/12 08:26:57;;;;;;;;;;;;;;;1.35;75.95;98269.97;5066651;28;19939;-83
2023/03/12 08:29:22;;;;;;;;;;;;;;;1.47;75.87;98265.72;5050596;28;19966;-83
2023/03/12 08:31:47;;;;;;;;;;;;;;;1.54;75.70;98270.94;5068664;28;19951;-82
2023/03/12 08:34:13;;;;;;;;;;;;;;;1.61;75.78;98276.19;5067152;28;19991;-83
2023/03/12 08:36:38;;;;;;;;;;;;;;;1.41;74.81;98270.97;5073740;28;20346;-82
2023/03/12 08:39:03;;;;;;;;;;;;;;;1.63;76.08;98266.28;5071308;28;20295;-83
2023/03/12 08:44:20;;;;;;;;;;;;;;;1.92;75.40;98279.75;5071223;28;19931;-83
2023/03/12 08:46:46;;;;;;;;;;;;;;;1.98;75.01;98260.53;5065734;28;19921;-82
2023/03/12 08:49:11;;;;;;;;;;;;;;;1.72;75.24;98262.41;5053625;28;19929;-83
2023/03/12 08:51:37;;;;;;;;;;;;;;;2.03;74.93;98273.84;5076215;28;20961;-82
2023/03/12 08:54:04;;;;;;;;;;;;;;;2.08;74.80;98270.59;5048839;28;19977;-81
2023/03/12 08:56:29;;;;;;;;;;;;;;;2.09;74.62;98274.84;5052432;28;20284;-82
2023/03/12 08:58:54;;;;;;;;;;;;;;;2.10;74.59;98265.91;5068061;28;19929;-83
2023/03/12 09:01:19;;;;;;;;;;;;;;;1.91;73.67;98251.84;5069896;28;20392;-82
2023/03/12 09:03:46;;;;;;;;;;;;;;;1.90;73.09;98246.78;5069670;28;19917;-82
2023/03/12 09:06:15;;;;;;;;;;;;;;;2.02;73.73;98248.56;5067114;28;19943;-81
2023/03/12 09:08:41;;;;;;;;;;;;;;;2.18;74.43;98247.28;5070807;28;20002;-82
2023/03/12 09:11:11;;;;;;;;;;;;;;;2.02;73.82;98240.66;5071010;28;19924;-82
2023/03/12 09:13:36;;;;;;;;;;;;;;;2.13;73.96;98247.91;5066393;28;19924;-83
2023/03/12 09:16:02;;;;;;;;;;;;;;;2.03;74.06;98244.09;5054607;28;19985;-83
2023/03/12 09:18:28;;;;;;;;;;;;;;;2.20;73.91;98229.44;5068878;28;19928;-84
2023/03/12 09:20:53;;;;;;;;;;;;;;;2.26;73.67;98233.88;5067647;28;19924;-82
2023/03/12 09:23:19;;;;;;;;;;;;;;;2.12;71.50;98233.13;5068915;28;19973;-82
2023/03/12 09:25:45;;;;;;;;;;;;;;;2.37;73.58;98225.31;5066397;28;19924;-82
2023/03/12 09:28:10;;;;;;;;;;;;;;;2.18;71.32;98218.31;5065524;28;19987;-82
2023/03/12 09:30:36;;;;;;;;;;;;;;;2.30;72.16;98216.63;5068972;28;20011;-84
2023/03/12 09:33:02;;;;;;;;;;;;;;;2.51;73.26;98211.03;5064726;28;20031;-83
2023/03/12 09:35:27;;;;;;;;;;;;;;;2.39;71.93;98210.09;5072068;28;19980;-84
2023/03/12 09:37:52;;;;;;;;;;;;;;;2.41;73.17;98207.25;5052263;28;20430;-82
2023/03/12 09:40:20;;;;;;;;;;;;;;;2.37;71.96;98204.22;5074515;28;19920;-82
2023/03/12 09:42:48;;;;;;;;;;;;;;;2.37;71.11;98206.06;5070645;28;19928;-83
2023/03/12 09:45:29;;;;;;;;;;;;;;;2.73;73.56;98209.66;5062486;28;19967;-82
2023/03/12 09:47:56;;;;;;;;;;;;;;;2.52;71.80;98217.91;5063649;28;19923;-83
2023/03/12 09:50:25;;;;;;;;;;;;;;;2.78;73.02;98201.91;5071385;28;19916;-84
2023/03/12 09:53:02;;;;;;;;;;;;;;;2.64;71.76;98208.31;5069941;28;19980;-83
2023/03/12 09:55:31;;;;;;;;;;;;;;;2.91;73.25;98196.53;5065318;28;19923;-83
2023/03/12 09:57:58;;;;;;;;;;;;;;;2.85;71.23;98200.06;5067134;28;20011;-84
2023/03/12 10:00:26;;;;;;;;;;;;;;;2.96;71.40;98204.63;5065094;28;19923;-84
2023/03/12 10:03:17;;;;;;;;;;;;;;;3.04;71.89;98206.97;5071272;28;19920;-82
2023/03/12 10:05:49;;;;;;;;;;;;;;;3.13;72.72;98209.34;5070993;28;19998;-83
2023/03/12 10:08:28;;;;;;;;;;;;;;;2.87;71.94;98191.91;5078702;28;20339;-83
2023/03/12 10:10:57;;;;;;;;;;;;;;;3.01;72.37;98198.72;5067442;28;19923;-83
2023/03/12 10:13:40;;;;;;;;;;;;;;;2.94;71.35;98208.50;5071192;28;19920;-83
2023/03/12 10:16:18;;;;;;;;;;;;;;;3.08;72.92;98191.53;5069977;28;19920;-82
2023/03/12 10:18:49;;;;;;;;;;;;;;;2.97;71.81;98177.22;5070896;28;19916;-82
2023/03/12 10:21:15;;;;;;;;;;;;;;;3.06;72.15;98183.03;5080754;28;20384;-83
2023/03/12 10:23:40;;;;;;;;;;;;;;;3.08;71.64;98180.19;5076085;28;19920;-84
2023/03/12 10:26:15;;;;;;;;;;;;;;;3.02;72.97;98197.66;5072655;28;19924;-84
2023/03/12 10:28:40;;;;;;;;;;;;;;;3.17;72.41;98197.34;5073371;28;19917;-83
2023/03/12 10:31:11;;;;;;;;;;;;;;;3.19;72.17;98198.72;5072823;28;19916;-84
2023/03/12 10:33:39;;;;;;;;;;;;;;;3.25;72.14;98199.69;5073122;28;19920;-84
2023/03/12 10:36:16;;;;;;;;;;;;;;;3.06;71.96;98193.56;5070996;28;19916;-83
2023/03/12 10:38:41;;;;;;;;;;;;;;;2.83;72.10;98188.91;5067660;28;19928;-83
2023/03/12 10:41:14;;;;;;;;;;;;;;;3.22;73.72;98192.22;5070489;28;19920;-83
2023/03/12 10:43:40;;;;;;;;;;;;;;;2.95;72.66;98189.81;5065969;28;20028;-83
2023/03/12 10:46:29;;;;;;;;;;;;;;;3.00;73.92;98191.81;5050801;28;20030;-83
2023/03/12 10:49:13;;;;;;;;;;;;;;;2.83;74.54;98190.75;5057904;28;20287;-82
2023/03/12 10:51:57;;;;;;;;;;;;;;;2.89;75.49;98197.78;5060812;28;20360;-83
2023/03/12 10:54:27;;;;;;;;;;;;;;;3.02;74.66;98203.75;5064399;28;20370;-84
2023/03/12 10:56:52;;;;;;;;;;;;;;;3.07;75.48;98197.84;5068404;28;19939;-83
2023/03/12 10:59:22;;;;;;;;;;;;;;;3.13;74.85;98196.16;5058843;28;19928;-83
2023/03/12 11:01:49;;;;;;;;;;;;;;;3.06;75.25;98195.44;5059615;28;19916;-82
2023/03/12 11:04:14;;;;;;;;;;;;;;;2.99;76.10;98184.94;5064427;28;20396;-81
2023/03/12 11:06:39;;;;;;;;;;;;;;;2.95;76.30;98186.38;5063342;28;19944;-83
2023/03/12 11:09:04;;;;;;;;;;;;;;;2.93;76.46;98183.97;5060537;28;21030;-83
2023/03/12 11:11:31;;;;;;;;;;;;;;;2.92;77.17;98184.19;5053452;28;20011;-83
2023/03/12 11:14:14;;;;;;;;;;;;;;;2.89;76.97;98172.25;5081535;28;19929;-83
2023/03/12 11:16:39;;;;;;;;;;;;;;;2.76;77.66;98174.97;5066616;28;19920;-81
2023/03/12 11:19:05;;;;;;;;;;;;;;;2.67;78.07;98176.28;5050585;28;20010;-81
2023/03/12 11:21:31;;;;;;;;;;;;;;;2.67;78.81;98178.91;5068529;28;19928;-82
2023/03/12 11:23:56;;;;;;;;;;;;;;;2.46;79.89;98173.19;5046635;28;19928;-84
2023/03/12 11:26:34;;;;;;;;;;;;;;;2.11;82.26;98172.81;5060743;28;19921;-84
2023/03/12 11:29:17;;;;;;;;;;;;;;;2.48;81.11;98164.06;5064819;28;19920;-83
2023/03/12 11:32:08;;;;;;;;;;;;;;;2.30;81.77;98161.34;5064791;28;19920;-84
2023/03/12 11:34:36;;;;;;;;;;;;;;;2.85;79.37;98163.16;5042958;28;20412;-83
2023/03/12 11:37:19;;;;;;;;;;;;;;;2.55;81.13;98166.66;5077340;28;20003;-84
2023/03/12 11:39:47;;;;;;;;;;;;;;;2.65;80.48;98159.88;5061917;28;19924;-84
2023/03/12 11:42:26;;;;;;;;;;;;;;;2.79;79.95;98161.38;5079129;28;19928;-83
2023/03/12 11:44:54;;;;;;;;;;;;;;;2.78;80.12;98159.75;5065622;28;19920;-82
2023/03/12 11:47:31;;;;;;;;;;;;;;;2.90;79.37;98158.06;5060580;28;20353;-83
2023/03/12 11:50:25;;;;;;;;;;;;;;;2.90;79.40;98158.06;5070945;28;19917;-82
2023/03/12 11:53:14;;;;;;;;;;;;;;;2.78;80.68;98141.31;5034495;28;19992;-83
2023/03/12 11:55:54;;;;;;;;;;;;;;;2.80;80.57;98149.81;5060254;28;19917;-82
2023/03/12 11:58:25;;;;;;;;;;;;;;;2.99;79.25;98140.13;5070685;28;20356;-83
2023/03/12 12:00:53;;;;;;;;;;;;;;;2.92;79.75;98132.28;5072883;28;19916;-83
2023/03/12 12:03:30;;;;;;;;;;;;;;;2.63;81.92;98122.41;5072237;28;19924;-82
2023/03/12 12:06:11;;;;;;;;;;;;;;;2.29;84.14;98126.28;5070820;28;19916;-82
2023/03/12 12:08:36;;;;;;;;;;;;;;;2.77;81.04;98116.00;5085101;28;19924;-84
2023/03/12 12:11:12;;;;;;;;;;;;;;;2.51;83.74;98115.44;5074513;28;19925;-83
2023/03/12 12:13:56;;;;;;;;;;;;;;;3.10;79.59;98106.97;5064047;28;19960;-84
2023/03/12 12:16:40;;;;;;;;;;;;;;;3.10;79.15;98099.06;5064426;28;19927;-84
2023/03/12 12:19:14;;;;;;;;;;;;;;;3.17;79.33;98091.91;5077254;28;20291;-83
2023/03/12 12:21:49;;;;;;;;;;;;;;;2.81;82.24;98098.75;5072933;28;20359;-83
2023/03/12 12:24:29;;;;;;;;;;;;;;;2.88;81.05;98096.81;5074296;28;20364;-83
2023/03/12 12:27:05;;;;;;;;;;;;;;;2.90;81.05;98099.25;5065705;28;20265;-83
2023/03/12 12:29:48;;;;;;;;;;;;;;;3.17;79.62;98097.16;5070180;28;20131;-84
2023/03/12 12:32:40;;;;;;;;;;;;;;;2.95;81.64;98096.75;5072816;28;20179;-83
2023/03/12 12:35:12;;;;;;;;;;;;;;;2.49;83.74;98099.81;5075640;28;20008;-84
2023/03/12 12:37:49;;;;;;;;;;;;;;;2.43;84.73;98092.78;5075778;28;19931;-82
2023/03/12 12:40:20;;;;;;;;;;;;;;;2.68;82.68;98083.06;5076276;28;19955;-82
2023/03/12 12:42:51;;;;;;;;;;;;;;;2.91;81.41;98072.69;5057273;28;19920;-82
2023/03/12 12:45:18;;;;;;;;;;;;;;;2.99;79.99;98072.38;5076532;28;20221;-82
2023/03/12 12:47:46;;;;;;;;;;;;;;;2.90;80.63;98067.63;5056674;28;19921;-83
2023/03/12 12:50:14;;;;;;;;;;;;;;;2.94;80.98;98064.34;5077128;28;19916;-82
2023/03/12 12:52:40;;;;;;;;;;;;;;;2.91;81.67;98067.41;5075184;28;19929;-83
2023/03/12 12:55:11;;;;;;;;;;;;;;;2.68;83.75;98061.16;5074966;28;19977;-82
2023/03/12 12:57:55;;;;;;;;;;;;;;;2.61;83.97;98068.31;5075563;28;19920;-83
2023/03/12 13:00:39;;;;;;;;;;;;;;;3.01;81.13;98067.69;5071937;28;19924;-83
2023/03/12 13:03:04;;;;;;;;;;;;;;;2.87;82.94;98063.59;5072893;28;19971;-83